Date,TemperatureHighF,TemperatureAvgF,TemperatureLowF,DewpointHighF,DewpointAvgF,DewpointLowF,HumidityHigh,HumidityAvg,HumidityLow,PressureMaxIn,PressureMinIn,WindSpeedMaxMPH,WindSpeedAvgMPH,GustSpeedMaxMPH,PrecipitationSumIn
2013-1-1,74.5,63.3,46.8,59.7,46.1,35.0,92,57,28,30.17,30.00,15,4,15,0.00
2013-1-2,68.4,59.7,51.8,61.8,43.9,32.2,83,58,34,30.14,29.97,8,3,9,0.04
2013-1-3,51.8,46.3,39.4,42.5,36.1,29.5,81,68,47,30.32,30.11,9,2,9,0.25
2013-1-4,55.8,43.2,33.4,32.1,25.2,18.7,83,52,24,30.38,30.29,10,2,10,0.04
2013-1-5,59.7,46.3,37.4,34.7,25.0,16.4,70,46,23,30.41,30.26,8,2,8,0.04
2013-1-6,58.5,50.2,45.0,36.3,28.9,22.1,62,45,27,30.29,30.17,7,2,7,0.00
2013-1-7,62.1,50.4,41.7,29.9,24.7,17.3,58,38,23,30.32,30.23,10,3,10,0.00
2013-1-8,74.3,59.9,48.2,45.7,36.6,25.7,59,43,25,30.29,30.17,9,3,9,0.00
2013-1-9,69.6,65.8,60.1,61.4,53.0,45.7,80,64,47,30.35,30.20,8,3,8,0.00
2013-1-10,80.1,71.2,63.9,63.7,48.9,35.5,84,49,21,30.32,30.20,14,5,14,0.00
2013-1-11,81.3,68.1,58.5,62.9,50.0,38.0,89,56,23,30.23,30.11,15,3,15,0.00
2013-1-12,80.8,68.1,57.6,63.8,50.8,35.5,96,60,21,30.17,30.06,15,4,15,0.00
2013-1-13,79.0,71.0,65.8,63.4,53.0,35.8,88,57,24,30.11,30.03,18,6,18,0.00
2013-1-14,77.5,70.6,65.7,65.2,56.5,40.6,89,64,30,30.17,30.06,14,5,14,0.00
2013-1-15,69.3,68.9,68.7,57.9,57.0,54.3,68,66,60,30.03,29.97,10,5,10,0.00
2013-1-16,78.3,70.2,64.2,60.2,56.0,46.9,84,63,34,30.03,29.94,14,4,14,0.17
2013-1-17,64.2,47.3,40.1,59.6,30.5,14.2,86,55,29,30.26,29.94,18,7,18,0.04
2013-1-18,63.3,44.8,33.8,27.6,22.3,12.9,68,44,22,30.50,30.26,10,2,10,0.21
2013-1-19,66.2,50.9,34.3,35.3,25.5,17.1,60,39,24,30.41,30.23,8,2,8,0.00
2013-1-20,70.9,53.9,39.4,44.9,31.3,22.9,89,46,23,30.26,30.11,8,1,8,0.00
2013-1-21,68.2,50.4,37.2,45.1,29.5,21.7,94,50,23,30.23,30.08,8,2,8,0.00
2013-1-22,62.8,46.5,31.5,31.4,19.2,12.6,58,35,22,30.38,30.17,11,2,11,0.00
2013-1-23,67.1,45.9,28.6,29.7,22.6,14.6,70,43,22,30.44,30.29,7,1,7,0.00
2013-1-24,74.5,54.2,35.6,50.5,32.3,24.2,95,48,22,30.35,30.23,12,2,12,0.00
2013-1-25,73.6,58.0,45.9,44.8,36.8,29.2,80,49,22,30.35,30.17,13,3,13,0.00
2013-1-26,78.3,59.0,43.9,60.6,39.2,32.2,100,53,22,30.26,30.17,8,2,8,0.00
2013-1-27,77.4,60.4,46.0,43.9,36.6,25.8,81,47,22,30.38,30.23,8,2,8,0.00
2013-1-28,78.3,64.3,53.1,52.4,42.2,33.9,71,48,22,30.35,30.20,12,3,12,0.00
2013-1-29,78.6,64.8,56.3,60.2,50.9,36.6,88,63,22,30.20,30.00,9,2,13,0.00
2013-1-30,77.2,67.1,48.2,63.8,49.2,17.4,75,53,29,30.06,29.67,14,7,26,1.80
2013-1-31,59.9,45.1,32.5,22.9,18.1,13.0,60,35,23,30.32,30.06,7,2,13,0.00
2013-2-1,64.5,43.6,31.1,36.3,21.0,13.8,86,45,22,30.41,30.29,6,1,10,0.00
2013-2-2,65.9,44.4,27.5,28.1,18.6,8.4,64,38,22,30.41,30.17,5,1,9,0.00
2013-2-3,69.1,52.7,36.8,45.6,29.4,17.2,94,46,22,30.26,30.08,6,2,10,0.00
2013-2-4,65.1,50.3,34.3,38.2,27.3,21.4,81,45,22,30.14,30.03,6,1,8,0.00
2013-2-5,69.0,56.9,47.3,54.0,45.4,31.5,84,67,30,30.08,30.00,6,1,10,0.16
2013-2-6,72.9,61.0,50.9,57.3,46.3,34.5,90,63,25,30.14,30.06,6,1,9,0.00
2013-2-7,72.6,60.6,51.4,65.9,53.8,45.1,98,79,44,30.08,29.79,10,2,21,0.92
2013-2-8,72.2,59.4,51.1,57.2,46.4,36.4,94,66,29,30.17,29.94,3,1,7,0.00
2013-2-9,70.7,54.7,41.6,42.1,31.0,19.8,72,44,22,30.29,30.14,5,1,9,0.00
2013-2-10,74.6,61.8,41.3,53.5,40.5,26.8,61,47,25,30.23,30.06,10,5,17,0.00
2013-2-11,77.4,67.5,60.1,60.8,54.2,43.5,83,64,34,30.14,30.06,8,3,15,0.76
2013-2-12,71.6,64.6,59.4,69.1,58.0,46.0,96,79,60,30.06,29.79,7,2,15,0.29
2013-2-13,71.2,60.3,45.1,63.9,41.9,24.9,80,55,24,30.06,29.79,7,2,17,0.13
2013-2-14,56.1,44.6,33.1,40.6,27.8,20.3,74,53,27,30.14,30.03,10,2,10,0.00
2013-2-15,69.4,48.3,30.0,46.2,28.0,19.5,100,51,22,30.17,30.00,10,1,10,0.00
2013-2-16,57.4,46.3,34.7,37.8,20.3,6.2,80,38,24,30.29,30.00,15,5,15,0.00
2013-2-17,58.1,39.1,23.5,20.6,12.8,3.2,70,36,23,30.41,30.23,8,2,8,0.00
2013-2-18,66.2,45.5,26.1,28.3,18.3,9.2,64,36,22,30.38,30.14,13,4,13,0.00
2013-2-19,68.2,55.7,43.5,61.5,37.3,16.1,93,53,24,30.20,30.06,13,3,13,0.41
2013-2-20,62.1,46.1,32.5,26.4,19.7,13.5,71,37,23,30.26,30.11,9,2,9,0.00
2013-2-21,74.3,54.0,31.8,52.0,29.7,17.9,72,44,22,30.17,29.94,10,3,10,0.00
2013-2-22,69.4,66.2,62.1,64.1,61.4,52.9,93,85,71,30.03,29.94,10,4,10,1.47
2013-2-23,73.9,66.6,56.8,68.9,62.5,52.5,98,87,53,29.97,29.82,10,3,10,1.07
2013-2-24,72.0,61.6,52.9,54.8,44.6,30.3,94,60,23,30.03,29.88,10,2,10,0.21
2013-2-25,63.7,60.3,55.6,61.1,54.4,47.2,93,81,56,29.91,29.61,13,5,13,2.79
2013-2-26,69.1,59.7,51.4,69.1,38.1,22.0,100,50,21,29.91,29.52,17,5,17,1.42
2013-2-27,65.8,52.9,43.0,40.6,28.6,19.5,78,42,23,30.06,29.91,12,2,12,0.00
2013-2-28,65.8,53.0,39.6,41.6,23.9,14.6,95,37,22,30.06,29.94,13,4,13,0.00
2013-3-1,56.5,45.4,34.9,26.4,17.0,10.8,68,33,24,30.11,30.00,10,3,10,0.00
2013-3-2,54.7,41.1,27.7,26.3,14.6,8.9,78,36,24,30.17,30.00,13,4,13,0.00
2013-3-3,53.4,40.6,28.4,18.4,12.9,6.6,59,33,25,30.20,30.06,13,4,13,0.00
2013-3-4,67.1,46.6,25.5,29.1,20.3,11.3,64,38,22,30.23,30.08,9,3,9,0.00
2013-3-5,74.8,61.1,45.5,53.2,38.9,20.2,67,46,22,30.14,29.94,17,6,17,0.04
2013-3-6,60.8,47.2,36.5,38.1,19.0,12.2,92,35,23,30.26,30.08,15,5,15,0.00
2013-3-7,68.4,46.5,31.3,30.0,22.0,14.7,69,41,21,30.32,30.17,8,2,8,0.00
2013-3-8,77.2,52.4,31.1,42.5,26.1,15.0,100,42,21,30.32,30.17,8,2,8,0.00
2013-3-9,73.6,54.8,36.9,33.2,27.2,19.8,64,37,22,30.26,30.11,12,3,12,0.00
2013-3-10,78.6,61.9,46.8,41.4,33.0,25.2,64,36,22,30.17,30.06,16,6,16,0.00
2013-3-11,73.6,60.2,51.3,60.9,46.9,34.8,89,65,25,30.06,29.82,22,6,22,1.17
2013-3-12,65.8,52.6,43.3,50.1,27.9,17.6,89,42,22,30.17,29.91,12,4,12,0.00
2013-3-13,69.4,53.8,36.7,36.3,24.9,15.0,81,36,22,30.32,30.17,12,4,12,0.00
2013-3-14,66.2,52.3,36.3,28.3,19.1,11.9,49,28,22,30.41,30.26,12,3,12,0.00
2013-3-15,74.8,55.9,32.0,34.3,27.5,17.0,68,37,21,30.32,30.17,14,3,14,0.00
2013-3-16,77.7,58.1,39.2,53.5,32.9,26.7,83,43,22,30.17,30.03,15,3,15,0.00
2013-3-17,68.7,59.2,47.8,59.7,47.7,35.6,89,67,47,30.08,29.94,10,3,10,0.13
2013-3-18,81.3,67.9,57.9,67.3,53.9,39.9,100,66,27,30.03,29.82,15,4,15,0.25
2013-3-19,79.5,65.3,56.3,58.4,46.2,30.1,91,57,21,30.08,29.91,7,2,7,0.62
2013-3-20,70.3,59.1,41.0,47.0,26.2,14.4,71,29,21,30.08,29.94,12,3,12,0.00
2013-3-21,68.0,50.8,38.1,29.5,22.1,12.4,65,34,22,30.08,29.91,13,2,13,0.00
2013-3-22,69.6,57.7,42.6,31.0,23.4,15.0,50,27,22,30.03,29.91,14,4,14,0.00
2013-3-23,70.0,62.2,58.8,63.8,45.4,24.7,95,59,25,29.94,29.67,8,4,8,1.50
2013-3-24,84.6,72.3,55.8,72.1,48.3,19.2,100,51,20,29.85,29.52,14,6,14,0.72
2013-3-25,64.2,50.9,40.1,27.5,17.0,10.8,31,26,22,30.17,29.82,15,6,15,0.00
2013-3-26,58.5,45.0,32.2,20.6,13.8,6.7,49,28,23,30.35,30.17,14,4,14,0.00
2013-3-27,64.8,44.9,28.6,27.5,18.3,8.8,75,37,22,30.41,30.26,9,2,9,0.00
2013-3-28,73.9,51.4,30.0,37.8,24.4,15.8,85,39,22,30.41,30.23,11,2,11,0.00
2013-3-29,77.0,54.9,35.1,40.8,28.4,20.6,75,41,22,30.35,30.23,11,2,11,0.00
2013-3-30,77.4,59.3,41.4,48.3,32.2,25.9,79,40,22,30.26,30.11,13,3,13,0.00
2013-3-31,81.3,64.3,49.1,52.6,41.7,28.6,73,46,21,30.11,29.94,14,3,14,0.00
2013-4-1,82.6,69.3,53.2,60.4,42.7,26.8,84,43,20,30.06,29.94,12,3,12,0.00
2013-4-2,85.5,64.4,44.2,51.7,36.0,25.5,87,41,20,30.14,30.03,10,2,10,0.00
2013-4-3,63.7,58.3,51.3,58.3,45.4,32.6,92,63,45,30.11,29.85,17,3,17,0.59
2013-4-4,75.0,66.8,63.1,62.4,53.8,41.2,89,66,31,29.97,29.85,6,2,6,0.04
2013-4-5,61.9,55.1,43.7,46.0,33.9,27.1,77,47,29,30.11,29.97,10,3,10,0.00
2013-4-6,81.0,57.9,37.6,53.3,34.4,26.8,93,48,21,30.20,30.06,8,2,8,0.00
2013-4-7,81.0,63.5,48.4,50.9,38.8,32.2,81,45,21,30.17,30.06,13,3,13,0.00
2013-4-8,83.8,65.5,47.5,57.6,40.5,33.3,88,46,20,30.14,30.06,12,3,12,0.00
2013-4-9,88.2,69.3,52.0,54.4,41.5,30.5,81,42,19,30.17,30.06,13,3,13,0.00
2013-4-10,86.9,69.4,53.4,60.1,41.9,33.1,87,42,20,30.11,29.94,13,3,13,0.00
2013-4-11,83.3,72.1,58.8,69.6,54.5,43.5,90,57,29,29.94,29.70,18,7,18,0.97
2013-4-12,79.3,67.7,55.9,64.2,45.5,26.8,81,49,21,29.97,29.70,14,4,14,0.00
2013-4-13,84.0,65.8,47.1,49.2,36.3,28.2,82,38,20,30.06,29.94,10,2,10,0.00
2013-4-14,66.4,61.5,57.4,56.9,46.8,30.1,88,61,28,30.03,29.82,13,4,13,1.21
2013-4-15,82.9,69.2,56.1,60.9,51.9,46.4,88,59,29,30.11,29.88,6,2,6,0.00
2013-4-16,91.2,75.8,66.0,60.2,51.1,40.1,79,48,19,30.17,30.06,10,3,10,0.00
2013-4-17,86.9,74.5,63.7,68.9,48.6,37.6,97,45,20,30.20,30.06,10,3,10,0.00
2013-4-18,84.7,72.5,62.1,64.4,50.2,38.0,88,50,20,30.06,29.94,14,4,14,0.00
2013-4-19,80.1,64.4,48.7,68.6,52.5,36.4,86,66,41,30.14,29.88,12,4,12,0.80
2013-4-20,71.4,55.7,44.8,46.4,31.7,19.5,88,46,21,30.26,30.11,10,3,10,0.00
2013-4-21,78.8,64.9,42.4,46.9,32.7,25.1,86,34,21,30.23,30.11,14,4,14,0.00
2013-4-22,73.8,66.0,61.7,43.8,40.0,33.1,50,39,25,30.20,30.08,10,3,10,0.00
2013-4-23,81.0,67.7,56.8,48.9,40.0,30.3,64,40,21,30.17,30.06,10,3,10,0.00
2013-4-24,81.7,67.3,53.2,60.9,48.9,39.7,90,55,23,30.17,30.06,10,2,10,0.00
2013-4-25,83.5,70.6,60.6,64.1,48.0,30.4,93,51,20,30.26,30.11,9,2,9,0.12
2013-4-26,87.6,68.7,55.0,42.8,32.4,22.2,57,27,20,30.32,30.17,10,2,10,0.00
2013-4-27,86.7,69.8,54.1,57.6,44.0,36.3,79,44,20,30.26,30.06,10,3,10,0.00
2013-4-28,83.1,70.5,58.6,64.5,51.8,39.4,89,56,23,30.14,29.97,13,3,13,0.76
2013-4-29,77.0,67.7,63.3,67.7,59.1,50.8,90,75,41,30.03,29.94,9,1,9,1.72
2013-4-30,84.9,69.2,58.1,64.7,52.6,37.3,93,62,20,30.03,29.94,10,2,10,0.29
2013-5-1,68.7,67.6,66.6,64.8,57.6,49.7,94,71,52,30.03,29.94,12,4,12,0.17
2013-5-2,79.7,69.5,62.6,54.8,48.8,39.5,70,50,27,30.03,29.88,15,5,15,0.00
2013-5-3,70.2,66.7,64.2,57.7,51.7,45.5,76,59,44,29.94,29.82,13,4,13,0.03
2013-5-4,69.3,58.5,48.7,57.2,41.2,22.3,90,58,22,29.94,29.76,12,3,12,0.39
2013-5-5,75.2,58.7,41.5,49.8,32.3,20.3,84,42,22,29.97,29.82,17,3,17,0.00
2013-5-6,71.8,58.1,41.7,41.8,31.6,24.7,77,40,23,30.03,29.94,10,2,10,0.00
2013-5-7,78.6,64.1,51.4,51.2,39.7,30.3,88,46,22,30.06,29.94,9,2,9,0.00
2013-5-8,82.2,66.3,51.3,56.2,42.2,30.5,82,48,18,30.14,30.00,8,2,9,0.00
2013-5-9,86.0,69.5,56.5,66.4,44.4,28.8,91,47,17,30.17,30.03,7,2,7,0.00
2013-5-10,81.7,71.4,56.7,64.7,45.8,35.5,93,48,21,30.14,30.03,12,3,12,0.00
2013-5-11,76.5,71.5,61.2,68.1,54.7,49.4,91,57,43,30.06,29.94,10,3,8,0.00
2013-5-12,82.2,68.1,62.4,64.9,54.8,34.2,98,70,21,30.08,29.97,5,1,7,0.00
2013-5-13,79.7,65.3,49.3,34.2,19.7,9.2,56,20,12,30.17,30.03,11,2,11,0.00
2013-5-14,85.8,66.0,44.6,35.2,24.2,15.8,55,25,11,30.21,30.06,8,1,8,0.00
2013-5-15,89.6,69.7,50.0,50.2,28.6,18.1,67,27,10,30.15,29.94,9,1,9,0.00
2013-5-16,87.1,71.3,60.1,62.3,35.2,21.9,79,33,11,30.03,29.88,12,2,12,0.00
2013-5-17,88.7,71.5,56.3,67.2,38.2,22.3,86,39,10,30.03,29.88,8,1,8,0.00
2013-5-18,86.2,72.9,59.4,67.9,47.8,36.1,86,46,20,33.27,29.94,8,1,8,0.00
2013-5-19,91.8,76.8,64.8,75.6,58.1,50.2,100,58,30,30.10,30.01,8,1,8,0.00
2013-5-20,95.5,78.4,67.5,70.2,59.3,52.4,99,56,34,30.10,29.95,6,1,6,0.00
2013-5-21,96.4,77.3,61.5,72.7,59.0,53.1,100,58,34,30.07,29.92,10,2,10,0.00
2013-5-22,92.7,76.7,63.7,72.3,60.4,53.4,100,62,34,30.04,29.89,10,1,10,0.00
2013-5-23,96.3,80.3,64.4,72.7,60.7,53.5,100,57,34,30.07,29.95,8,2,9,0.00
2013-5-24,93.6,78.1,63.9,68.6,56.1,39.7,100,51,34,30.19,30.01,7,2,11,0.00
2013-5-25,94.6,74.9,59.7,61.9,48.1,36.6,54,39,34,30.31,30.13,6,2,7,0.00
2013-5-26,91.2,73.4,55.8,59.7,54.1,44.5,89,54,35,30.28,30.13,6,2,8,0.00
2013-5-27,93.7,74.7,57.2,67.5,55.9,49.7,100,56,34,30.22,30.07,7,2,9,0.00
2013-5-28,91.9,75.7,59.5,60.5,54.2,43.7,84,50,34,30.19,30.07,9,2,11,0.00
2013-5-29,93.6,79.6,64.4,61.7,57.0,45.7,76,48,34,30.16,30.04,13,4,13,0.00
2013-5-30,92.1,80.0,70.0,67.5,60.1,53.4,89,54,34,30.16,30.01,14,3,14,0.37
2013-5-31,90.1,78.6,70.0,70.3,60.9,53.3,98,59,35,30.16,30.01,11,3,11,0.00
2013-6-1,89.2,78.4,69.3,68.8,61.6,56.6,89,59,35,30.07,29.95,9,2,9,0.09
2013-6-2,94.1,78.4,68.0,76.5,64.9,56.4,100,68,34,30.04,29.83,10,1,10,0.00
2013-6-3,91.0,78.8,69.4,75.9,63.7,57.8,100,62,35,29.98,29.86,6,1,6,0.00
2013-6-4,93.0,79.2,68.9,77.9,64.5,57.6,100,65,34,30.01,29.92,9,2,9,0.00
2013-6-5,89.8,76.4,71.1,76.0,66.8,56.1,100,75,38,30.01,29.89,12,2,12,0.12
2013-6-6,84.6,75.1,68.7,73.1,65.8,56.8,100,77,41,29.92,29.69,10,1,10,0.04
2013-6-7,90.7,77.6,66.0,75.2,62.4,55.9,100,65,35,29.92,29.72,12,2,12,0.00
2013-6-8,93.6,79.8,66.2,75.1,62.0,56.4,100,58,34,30.07,29.89,10,2,10,0.00
2013-6-9,76.5,73.3,70.0,76.5,70.5,63.0,100,91,70,30.13,30.01,6,1,6,1.63
2013-6-10,87.1,76.9,69.3,80.2,67.8,58.4,100,77,43,30.13,30.01,9,1,9,0.41
2013-6-11,94.3,80.4,70.5,78.8,66.1,59.0,100,67,34,30.16,30.01,8,1,8,0.00
2013-6-12,97.5,83.2,70.0,77.4,65.8,59.0,100,61,33,30.13,30.01,8,1,8,0.00
2013-6-13,95.9,83.8,73.9,78.3,66.6,59.0,100,61,34,30.04,29.86,10,2,10,0.00
2013-6-14,95.4,83.8,73.6,77.9,65.3,56.3,97,57,34,29.95,29.83,8,2,8,0.00
2013-6-15,94.3,81.1,71.1,71.1,62.9,58.3,82,57,34,30.07,29.92,11,2,11,0.00
2013-6-16,96.6,82.1,72.0,72.6,65.0,58.1,95,61,34,30.13,30.01,9,2,9,0.00
2013-6-17,91.6,81.0,70.9,75.9,64.8,58.2,100,61,37,30.07,29.95,11,2,11,0.00
2013-6-18,91.6,81.0,70.9,74.7,64.0,57.3,96,59,34,30.04,29.92,10,2,10,0.12
2013-6-19,94.3,82.7,70.9,74.2,63.5,56.9,100,58,34,30.04,29.95,8,1,8,0.21
2013-6-20,93.6,82.0,70.0,74.4,63.6,57.1,96,58,34,30.13,29.98,10,1,10,0.23
2013-6-21,95.4,78.4,70.5,74.0,64.9,57.0,100,68,34,30.19,30.07,10,2,10,0.00
2013-6-22,90.0,77.7,68.7,73.2,64.0,56.9,100,67,35,30.16,30.04,13,1,13,0.00
2013-6-23,89.4,78.5,70.5,74.7,64.4,57.4,100,66,35,30.19,30.07,10,2,10,0.00
2013-6-24,93.9,76.1,68.5,76.8,67.0,56.0,100,79,34,30.22,30.10,13,1,23,2.63
2013-6-25,93.2,74.2,68.2,70.7,66.7,53.3,100,82,36,30.16,30.04,13,1,13,0.13
2013-6-26,91.6,77.7,69.6,77.2,67.7,60.6,100,75,37,30.13,30.01,4,1,4,0.04
2013-6-27,94.1,84.0,70.7,77.4,66.0,60.0,100,59,34,30.07,29.89,6,2,8,0.00
2013-6-28,92.3,80.5,72.0,77.4,67.7,56.4,95,69,37,29.95,29.78,8,2,10,0.20
2013-6-29,87.6,76.7,69.6,77.0,68.2,61.3,100,79,44,29.86,29.72,10,2,11,1.32
2013-6-30,81.1,75.7,71.8,76.6,70.5,63.0,100,85,59,29.83,29.72,4,0,8,0.46
2013-7-1,89.2,76.4,68.0,78.8,64.7,55.4,100,70,38,29.95,29.78,7,1,8,0.08
2013-7-2,92.7,79.9,68.5,73.9,63.6,55.6,100,63,34,30.07,29.89,7,1,8,0.00
2013-7-3,75.0,72.9,70.5,74.8,71.3,65.4,100,95,73,30.13,30.01,9,1,9,9.75
2013-7-4,73.8,72.5,70.7,73.8,72.4,70.2,100,100,96,30.10,30.01,14,2,14,3.58
2013-7-5,79.3,74.0,70.3,75.4,69.4,62.4,100,87,57,30.19,30.07,9,1,9,1.50
2013-7-6,81.5,74.6,70.5,76.9,72.1,63.9,100,93,60,30.10,30.04,7,2,8,2.33
2013-7-7,89.8,77.6,70.3,77.7,69.3,60.0,100,79,37,30.16,30.07,6,1,6,0.20
2013-7-8,94.6,78.2,73.0,79.0,68.8,56.2,100,77,34,30.22,30.13,8,1,9,0.00
2013-7-9,95.7,79.4,69.4,77.4,67.2,58.0,100,71,34,30.22,30.07,6,1,6,0.08
2013-7-10,91.2,78.0,72.5,79.3,69.3,60.5,100,78,37,30.16,30.01,7,1,7,0.34
2013-7-11,88.3,75.9,72.5,78.6,72.5,61.0,100,91,43,30.07,29.98,5,1,6,0.24
2013-7-12,76.5,76.5,75.0,74.9,74.8,72.8,95,95,93,29.98,29.98,2,1,2,0.24
2013-7-13,76.5,75.2,70.9,74.9,73.6,68.1,100,95,86,30.04,29.92,4,1,4,2.17
2013-7-14,81.5,75.0,70.9,75.0,71.3,63.8,100,89,56,30.10,29.95,6,2,7,0.49
2013-7-15,91.6,79.9,72.9,74.0,64.8,57.2,99,65,34,30.19,30.07,8,2,9,0.00
2013-7-16,91.2,79.4,73.9,71.9,65.6,57.0,91,66,35,30.25,30.13,10,2,13,0.13
2013-7-17,94.8,81.8,70.9,76.0,64.8,56.7,100,62,34,30.28,30.10,9,1,18,0.00
2013-7-18,94.5,80.5,72.1,71.6,62.3,54.9,87,57,34,30.16,30.04,6,2,6,0.00
2013-7-19,89.2,77.7,72.0,75.5,67.3,57.7,98,74,38,30.13,30.01,8,1,8,0.08
2013-7-20,89.1,77.7,73.4,78.1,69.7,60.4,100,80,40,30.10,29.95,8,1,10,0.87
2013-7-21,89.2,78.3,73.4,77.6,69.0,58.8,100,76,40,30.10,30.01,8,1,8,0.66
2013-7-22,83.8,74.3,71.8,79.3,72.2,65.0,100,93,57,30.16,30.01,9,1,9,1.62
2013-7-23,89.8,78.9,70.2,80.4,69.2,58.6,100,76,43,30.07,29.95,10,2,10,0.42
2013-7-24,88.2,77.1,70.2,79.9,71.0,60.7,100,84,44,29.98,29.89,6,1,6,0.37
2013-7-25,91.2,79.6,72.3,75.6,67.2,59.8,100,70,37,30.01,29.89,5,1,6,0.00
2013-7-26,94.3,82.0,72.9,75.2,65.3,57.1,100,62,34,30.07,29.95,6,1,7,0.00
2013-7-27,90.1,77.8,72.1,79.8,67.1,55.9,100,72,37,30.04,29.95,5,1,6,0.00
2013-7-28,89.2,79.7,73.2,76.5,67.6,60.8,100,70,40,30.07,29.95,9,3,10,0.12
2013-7-29,92.1,79.9,73.4,78.4,70.3,59.8,100,76,37,30.16,30.01,7,1,9,2.67
2013-7-30,93.0,80.4,73.0,82.8,69.7,61.0,100,74,37,30.22,30.07,6,1,9,0.04
2013-7-31,91.2,79.0,73.4,81.0,69.6,60.4,100,75,43,30.16,30.01,6,1,6,0.30
2013-8-1,82.2,77.7,73.9,77.0,71.7,63.8,100,83,55,30.07,29.95,4,0,6,1.54
2013-8-2,87.6,78.6,73.0,81.4,72.7,63.1,100,83,49,30.07,29.95,5,0,5,1.88
2013-8-3,90.3,81.9,75.0,80.7,69.8,60.8,100,70,40,30.10,30.01,6,1,8,0.00
2013-8-4,96.6,82.6,75.4,79.7,68.2,58.8,100,66,34,30.13,29.95,10,1,10,0.12
2013-8-5,95.7,82.4,74.1,78.0,67.8,57.6,100,67,34,30.07,29.95,8,1,8,0.00
2013-8-6,96.4,83.4,73.2,75.9,65.3,56.9,100,59,34,30.04,29.92,8,1,8,0.00
2013-8-7,92.3,80.0,74.3,76.0,69.4,61.3,96,72,37,30.04,29.92,9,1,9,1.98
2013-8-8,91.8,79.4,74.3,77.4,70.5,61.4,100,77,37,30.04,29.95,8,1,10,0.13
2013-8-9,95.0,81.5,74.1,80.1,68.5,59.1,100,69,34,30.10,29.98,13,1,13,0.00
2013-8-10,88.9,79.3,73.9,77.7,68.3,60.3,100,71,43,30.16,30.07,8,1,12,0.36
2013-8-11,96.3,81.4,72.0,76.9,65.9,59.0,100,64,34,30.19,30.07,6,1,6,0.00
2013-8-12,94.8,80.3,72.9,79.3,66.6,59.1,100,66,34,30.16,30.01,4,1,6,0.00
2013-8-13,88.7,78.3,72.9,78.1,69.4,60.8,100,76,44,30.10,29.95,4,1,5,1.41
2013-8-14,93.6,79.9,73.0,76.6,67.2,58.2,100,69,34,29.98,29.89,8,1,8,0.04
2013-8-15,90.0,77.4,73.0,76.1,69.4,59.8,100,79,37,30.04,29.92,6,1,7,0.54
2013-8-16,81.5,76.4,73.4,77.0,71.7,65.9,100,86,62,30.07,29.95,4,1,4,1.66
2013-8-17,73.9,72.6,70.9,73.9,72.6,70.9,100,100,97,30.10,29.98,5,1,5,4.22
2013-8-18,87.3,73.5,70.2,77.2,71.0,61.0,100,93,53,30.13,30.04,7,1,7,2.50
2013-8-19,92.3,79.3,71.1,77.8,68.4,60.0,100,74,37,30.10,29.98,6,2,8,0.05
2013-8-20,88.7,75.5,71.2,75.6,69.6,61.5,100,84,43,30.13,30.01,6,1,7,2.18
2013-8-21,94.5,76.0,69.6,74.2,67.6,58.5,100,79,34,30.19,30.07,8,1,8,1.03
2013-8-22,85.6,76.7,70.9,76.7,67.0,60.4,100,75,44,30.16,30.01,6,1,8,0.00
2013-8-23,85.8,75.2,70.7,72.2,67.1,62.3,97,78,46,30.07,29.95,4,1,8,0.04
2013-8-24,87.3,78.4,72.0,77.7,68.9,61.2,100,76,43,30.16,30.01,3,1,6,0.00
2013-8-25,86.5,78.0,72.7,72.2,63.0,56.6,90,62,38,30.25,30.13,9,2,12,0.00
2013-8-26,89.1,77.9,68.9,62.5,57.6,53.3,68,52,35,30.22,30.07,8,2,10,0.00
2013-8-27,93.7,77.8,67.1,68.9,60.1,55.6,94,57,34,30.16,30.01,6,1,6,0.00
2013-8-28,93.2,79.9,69.6,70.8,62.0,56.7,94,57,34,30.10,29.98,6,1,6,0.00
2013-8-29,95.4,80.7,70.3,73.0,63.2,55.6,100,60,34,30.10,29.95,6,1,7,0.00
2013-8-30,95.5,82.6,72.9,70.3,64.2,58.2,89,58,34,30.04,29.89,6,1,6,0.05
2013-8-31,94.1,79.4,73.2,76.3,67.9,59.8,96,71,36,29.95,29.83,8,1,8,0.12
2013-9-1,89.4,78.4,71.8,80.3,67.0,57.5,100,71,43,29.98,29.89,6,1,8,0.00
2013-9-2,89.8,76.1,71.1,77.0,65.6,58.4,100,72,38,30.07,29.92,5,1,6,0.51
2013-9-3,92.5,78.0,71.6,79.9,69.2,59.2,100,78,34,30.04,29.89,4,1,5,0.04
2013-9-4,92.7,77.9,70.3,77.4,68.4,59.2,100,78,37,30.10,29.95,4,1,8,0.08
2013-9-5,97.0,81.8,75.4,77.9,68.8,58.8,100,71,33,30.16,30.01,7,1,7,0.12
2013-9-6,95.4,82.1,71.6,75.9,64.5,56.3,100,61,34,30.13,29.95,4,1,6,0.13
2013-9-7,95.2,80.6,71.4,74.2,63.6,56.2,96,61,34,30.10,29.95,6,1,8,0.00
2013-9-8,95.4,79.7,68.5,74.1,61.7,52.8,98,59,34,30.07,29.95,5,1,6,0.00
2013-9-9,95.4,79.4,67.5,73.0,62.4,55.6,100,61,34,30.07,29.95,6,1,6,0.17
2013-9-10,93.4,79.9,71.8,71.1,62.8,54.5,93,61,34,30.19,30.07,8,2,10,1.27
2013-9-11,94.8,79.9,68.5,71.0,61.2,54.8,94,56,34,30.16,30.01,8,1,8,0.00
2013-9-12,96.1,80.8,69.8,73.5,62.4,56.2,100,58,34,30.10,29.89,6,1,7,0.00
2013-9-13,97.7,81.1,68.5,72.7,61.4,52.7,100,56,33,29.95,29.81,6,1,6,0.00
2013-9-14,94.1,80.7,71.1,66.8,58.8,50.8,85,50,34,30.04,29.83,4,1,6,0.00
2013-9-15,99.1,82.3,67.8,64.9,57.5,49.8,69,44,33,30.10,29.98,10,2,10,0.00
2013-9-16,96.4,79.8,72.3,73.4,65.7,58.0,94,65,34,30.10,30.01,10,1,10,0.08
2013-9-17,96.8,79.7,71.2,76.3,66.6,57.0,100,69,33,30.10,29.98,9,1,9,0.08
2013-9-18,88.5,78.4,71.4,62.7,59.3,55.3,71,54,35,30.16,30.01,7,2,9,0.00
2013-9-19,94.6,79.2,68.5,61.9,57.2,52.4,67,49,34,30.16,30.01,9,2,10,0.00
2013-9-20,89.8,77.3,68.4,70.2,60.8,55.5,92,59,35,30.07,29.89,11,2,11,0.93
2013-9-21,80.2,73.5,69.3,74.0,68.5,62.1,98,85,60,29.95,29.78,6,0,6,2.20
2013-9-22,77.9,74.0,71.8,75.6,71.6,65.3,100,93,67,29.83,29.72,3,0,6,0.95
2013-9-23,88.2,75.9,72.0,80.1,72.4,64.6,100,90,46,29.92,29.81,6,0,6,3.16
2013-9-24,84.0,76.4,69.4,75.9,70.7,63.7,100,85,52,29.95,29.81,9,0,9,2.93
2013-9-25,89.6,76.0,68.4,74.9,69.1,61.2,100,82,40,29.86,29.72,6,1,6,0.04
2013-9-26,84.9,73.4,65.7,73.2,63.2,53.5,100,74,36,30.01,29.81,4,1,5,0.16
2013-9-27,86.7,69.7,63.1,61.1,56.6,46.2,92,68,36,30.07,29.95,6,1,9,11.28
2013-9-28,85.5,73.2,61.3,55.4,52.0,47.6,74,49,36,30.13,30.01,8,2,8,11.28
2013-9-29,87.1,71.4,58.6,58.0,51.7,46.7,85,52,36,30.10,29.95,8,1,8,11.28
2013-9-30,82.4,71.2,62.6,61.4,57.2,51.0,75,62,39,30.07,29.95,6,1,7,11.28
2013-10-1,76.8,73.4,65.5,59.5,56.9,54.2,80,57,50,30.13,30.01,5,1,6,11.28
2013-10-2,87.3,77.1,68.4,58.7,56.7,53.2,68,50,36,30.10,30.01,7,1,7,0.30
2013-10-3,87.4,74.5,65.5,67.8,58.6,53.5,94,60,36,30.10,30.01,7,1,7,0.00
2013-10-4,93.7,77.9,66.6,72.0,60.8,55.8,97,59,34,30.13,30.01,7,1,7,0.00
2013-10-5,91.2,76.0,67.6,74.4,61.1,56.3,99,63,35,30.10,29.95,7,-80,8,0.00
2013-10-6,79.7,72.0,66.2,72.4,65.8,58.3,99,82,49,29.98,29.83,6,-122,9,0.26
2013-10-7,82.0,72.9,66.2,72.5,62.0,47.3,100,72,45,29.95,29.78,7,2,7,0.99
2013-10-8,84.0,71.3,61.3,61.7,52.6,44.6,67,52,39,30.04,29.89,5,2,8,0.00
2013-10-9,74.3,66.7,59.9,58.9,54.0,50.5,79,64,46,30.16,30.01,7,2,8,0.00
2013-10-10,87.4,70.6,57.7,67.1,54.2,47.8,100,62,36,30.16,30.01,5,1,6,0.00
2013-10-11,89.2,70.5,57.6,68.3,53.9,46.7,100,60,35,30.10,29.95,4,1,6,0.00
2013-10-12,64.0,63.7,62.6,61.0,59.8,55.6,90,87,77,30.07,30.01,0,0,0,0.00
2013-10-13,86.0,70.1,59.2,67.7,54.2,48.3,100,61,36,30.16,30.07,7,1,7,0.00
2013-10-14,83.8,70.9,61.2,59.3,53.2,47.8,86,56,36,30.16,30.01,9,2,9,0.00
2013-10-15,82.6,68.2,60.3,63.8,54.5,51.6,94,64,39,30.10,29.95,6,1,8,0.00
2013-10-16,88.3,69.6,57.4,66.2,54.2,48.3,100,62,35,30.07,29.95,4,1,6,0.00
2013-10-17,89.4,68.0,60.4,64.3,55.9,51.8,80,68,35,29.98,29.89,6,0,6,0.00
2013-10-18,74.8,71.3,67.3,67.9,63.4,59.5,95,77,60,30.04,29.92,5,1,5,0.04
2013-10-19,73.8,69.1,64.8,66.4,59.1,51.9,94,72,49,30.01,29.89,5,1,6,0.00
2013-10-20,81.3,69.5,57.7,59.6,49.5,43.5,91,53,37,30.07,29.95,7,2,8,0.00
2013-10-21,73.2,66.5,62.2,57.9,53.1,48.6,77,62,53,30.10,29.98,4,1,4,0.00
2013-10-22,76.1,67.7,61.3,67.9,58.9,49.7,97,75,40,30.01,29.86,4,0,5,0.00
2013-10-23,75.7,62.8,48.0,59.9,44.3,29.7,92,53,37,30.10,29.92,9,2,9,0.00
2013-10-24,81.0,55.0,40.3,52.2,35.9,29.5,78,50,37,30.28,30.07,4,1,6,0.00
2013-10-25,71.8,56.6,46.2,46.3,38.4,24.4,82,53,37,30.40,30.19,9,2,9,0.00
2013-10-26,75.0,52.6,38.8,47.7,31.2,20.7,62,44,37,30.34,30.19,6,1,7,0.00
2013-10-27,80.6,58.8,38.7,51.9,40.5,29.7,86,53,37,30.25,30.10,6,1,6,0.00
2013-10-28,83.8,62.9,47.7,54.0,45.1,38.7,88,55,36,30.28,30.13,7,1,7,0.00
2013-10-29,83.7,63.7,48.0,60.9,46.5,40.1,96,56,36,30.31,30.19,6,1,6,0.00
2013-10-30,84.2,65.8,53.4,61.7,49.0,43.9,93,58,36,30.31,30.13,7,1,9,0.00
2013-10-31,84.0,71.2,55.9,69.2,57.2,45.5,100,64,36,30.16,29.95,14,3,14,0.00
2013-11-1,75.0,71.6,65.7,75.0,67.5,61.7,100,87,75,29.95,29.78,4,1,4,1.33
2013-11-2,79.9,64.5,52.0,64.5,49.3,34.6,100,63,37,30.10,29.89,6,1,7,0.00
2013-11-3,70.9,55.4,34.9,44.7,36.7,13.6,67,51,37,30.28,30.07,8,2,10,0.00
2013-11-4,76.1,59.9,43.5,48.6,40.4,33.1,75,50,38,30.31,30.22,9,3,10,0.00
2013-11-5,75.2,62.8,53.1,47.8,40.9,32.8,55,45,38,30.31,30.19,9,4,12,0.00
2013-11-6,82.9,63.7,59.7,56.3,49.1,41.7,75,60,36,30.22,30.07,4,2,5,0.00
2013-11-7,75.7,62.1,48.6,66.9,51.1,31.7,97,68,52,30.25,30.07,8,2,8,0.08
2013-11-8,67.6,50.0,40.6,42.5,30.9,26.1,62,49,37,30.31,30.19,8,2,11,0.00
2013-11-9,76.1,56.6,40.8,48.7,39.5,28.6,72,54,38,30.28,30.19,5,1,6,0.00
2013-11-10,76.8,60.8,49.8,55.5,46.3,40.5,92,62,38,30.28,30.16,8,1,8,0.00
2013-11-11,79.9,59.2,45.0,52.9,43.2,36.9,95,59,37,30.28,30.13,6,1,6,0.00
2013-11-12,75.2,57.5,42.6,55.4,40.3,21.7,93,57,38,30.40,30.13,7,2,10,0.00
2013-11-13,56.3,43.2,31.5,32.3,22.0,12.6,45,43,40,30.49,30.40,13,3,14,0.00
2013-11-14,67.5,49.7,33.3,42.3,29.2,14.2,62,45,37,30.43,30.22,6,1,6,0.00
2013-11-15,65.5,59.9,55.6,55.6,49.2,39.4,84,68,54,30.22,30.07,6,2,7,0.00
2013-11-16,67.5,58.1,56.8,60.0,54.0,51.7,89,86,66,30.13,30.07,4,0,4,0.00
2013-11-17,81.9,72.1,66.9,69.1,62.8,58.6,92,74,47,30.07,29.95,13,2,13,0.00
2013-11-18,73.4,69.9,57.0,72.8,66.4,38.4,100,90,49,30.07,29.95,4,0,4,0.29
2013-11-19,68.5,56.4,46.2,43.2,35.7,31.1,57,46,37,30.10,29.98,7,2,8,0.00
2013-11-20,72.0,58.7,49.6,45.9,39.7,33.4,60,50,39,30.22,30.07,7,2,9,0.00
2013-11-21,77.0,63.7,54.3,54.3,48.5,41.3,70,58,40,30.31,30.19,8,2,8,0.00
2013-11-22,75.2,64.6,59.2,64.3,56.0,52.1,100,75,50,30.28,30.16,5,1,6,0.00
2013-11-23,73.0,65.0,55.0,66.6,54.7,35.7,100,72,48,30.22,30.10,6,1,10,0.00
2013-11-24,59.0,50.1,43.5,34.1,27.5,22.5,43,41,39,30.37,30.22,11,3,11,0.00
2013-11-25,59.2,52.7,43.2,36.1,30.3,22.2,43,42,39,30.37,30.22,8,3,9,0.00
2013-11-26,70.3,60.2,50.0,70.0,43.2,32.6,99,56,39,30.25,29.63,7,3,11,2.61
2013-11-27,50.4,42.2,32.7,48.2,31.6,19.7,94,68,41,30.34,29.81,10,2,10,0.04
2013-11-28,51.6,37.4,26.4,28.7,20.9,15.5,66,52,41,30.49,30.34,5,1,6,0.00
2013-11-29,63.0,42.6,27.0,37.1,26.3,13.4,76,54,38,30.54,30.43,8,1,8,0.00
2013-11-30,69.8,47.2,32.9,44.2,30.9,21.0,75,55,38,30.49,30.31,6,1,6,0.00
2013-12-1,69.6,52.4,43.2,44.2,37.5,32.8,75,58,40,30.31,30.01,5,1,5,0.00
2013-12-2,73.9,56.5,47.3,55.5,42.9,37.7,97,63,38,30.04,29.86,4,0,4,0.00
2013-12-3,75.7,59.7,47.1,67.1,50.5,40.0,98,74,40,30.25,29.83,10,1,10,0.33
2013-12-4,77.7,65.6,54.7,71.8,59.2,50.7,100,81,56,30.07,29.92,6,1,7,0.08
2013-12-5,81.7,73.1,68.4,72.2,65.7,57.7,99,80,46,30.13,30.01,10,2,10,0.00
2013-12-6,81.0,73.3,67.3,72.3,65.2,57.1,100,78,46,30.22,30.04,6,3,10,0.00
2013-12-7,72.9,62.8,54.5,69.1,52.7,43.1,92,71,42,30.28,30.10,5,2,5,0.05
2013-12-8,82.9,66.9,54.9,70.2,56.9,49.1,100,74,37,30.22,30.07,12,2,12,0.00
2013-12-9,79.2,71.0,66.9,74.7,65.1,59.9,100,83,54,30.19,30.07,7,2,10,0.00
2013-12-10,71.1,56.4,40.6,71.1,46.3,29.8,100,71,45,30.37,30.04,11,2,11,0.00
2013-12-11,66.6,49.5,38.3,41.5,33.1,23.8,71,54,40,30.40,30.28,6,2,8,0.00
2013-12-12,62.2,49.0,34.9,38.0,29.9,16.9,66,48,39,30.45,30.31,8,2,8,0.00
2013-12-13,65.5,47.0,29.8,39.7,28.5,13.3,67,49,38,30.40,30.10,5,1,6,0.00
2013-12-14,70.7,60.9,47.3,67.8,54.9,36.9,95,81,65,30.10,29.86,8,2,8,0.29
2013-12-15,60.6,46.2,34.2,55.7,35.1,24.5,87,66,49,30.31,29.89,7,2,8,0.12
2013-12-16,63.1,44.5,32.7,37.1,29.9,24.4,83,59,38,30.34,30.25,5,1,6,0.00
2013-12-17,70.0,46.2,31.3,47.7,32.7,24.6,94,63,37,30.37,30.19,3,0,6,0.00
2013-12-18,65.1,46.0,33.6,40.2,29.2,20.8,77,54,38,30.40,30.25,6,1,9,0.00
2013-12-19,54.7,35.2,31.5,35.2,24.0,21.2,68,64,45,30.34,30.19,1,0,1,0.00
2013-12-20,76.8,57.1,35.6,56.5,44.8,25.9,92,65,40,30.22,30.10,7,1,8,0.00
2013-12-21,78.1,71.9,62.1,64.4,60.1,56.8,88,68,49,30.10,29.95,12,6,17,0.00
2013-12-22,80.2,73.8,62.1,66.1,62.0,54.7,80,67,49,30.07,29.98,13,6,14,0.00
2013-12-23,61.9,53.9,42.6,57.2,49.1,28.6,100,84,57,30.34,30.04,10,2,10,2.62
2013-12-24,57.6,43.0,30.9,32.9,25.9,18.5,69,52,39,30.49,30.31,8,2,8,0.00
2013-12-25,58.5,42.8,28.6,33.6,26.0,17.7,66,52,39,30.40,30.25,6,2,8,0.00
2013-12-26,60.3,51.0,43.2,37.7,34.2,29.2,65,53,42,30.34,30.25,6,2,7,0.00
2013-12-27,58.1,53.6,46.9,35.8,33.0,27.3,64,46,39,30.40,30.31,8,5,8,0.00
2013-12-28,66.2,55.8,49.3,66.2,43.7,31.0,100,65,43,30.31,29.89,6,2,8,1.78
2013-12-29,63.7,53.5,41.4,63.7,45.3,33.9,100,75,56,30.13,29.83,6,1,6,0.08
2013-12-30,63.9,50.4,38.1,50.5,39.3,32.0,99,68,41,30.28,30.13,3,0,5,0.00
2013-12-31,51.6,49.3,46.0,45.3,39.2,35.2,79,68,57,30.43,30.25,6,1,8,0.00
2014-1-1,56.5,50.6,46.2,49.7,42.8,35.5,90,75,66,30.37,30.10,4,1,6,0.14
2014-1-2,58.6,51.9,36.7,58.6,45.2,17.8,100,80,43,30.25,29.89,9,2,11,0.27